createdAt,value
2022-11-15T00:05:28.785Z,958.57
2022-11-15T00:11:00.398Z,958.53
2022-11-15T00:16:32.306Z,958.51
2022-11-15T00:22:03.936Z,958.47
2022-11-15T00:27:35.757Z,958.43
2022-11-15T00:33:07.463Z,958.41
2022-11-15T00:38:39.312Z,958.37
2022-11-15T00:44:10.975Z,958.35
2022-11-15T00:49:42.840Z,958.27
2022-11-15T00:55:14.596Z,958.21
2022-11-15T01:00:46.344Z,958.18
2022-11-15T01:06:18.172Z,958.16
2022-11-15T01:11:50.222Z,958.06
2022-11-15T01:17:21.667Z,958.04
2022-11-15T01:22:52.901Z,957.98
2022-11-15T01:28:24.346Z,957.96
2022-11-15T01:33:56.058Z,957.92
2022-11-15T01:39:27.773Z,957.88
2022-11-15T01:44:59.092Z,957.86
2022-11-15T01:52:43.025Z,957.76
2022-11-15T01:58:14.353Z,957.72
2022-11-15T02:03:46.092Z,957.71
2022-11-15T02:09:17.953Z,957.69
2022-11-15T02:14:49.926Z,957.63
2022-11-15T02:20:21.606Z,957.61
2022-11-15T02:25:53.426Z,957.55
2022-11-15T02:31:25.246Z,957.53
2022-11-15T02:36:56.948Z,957.43
2022-11-15T02:42:29.114Z,957.39
2022-11-15T02:48:00.964Z,957.31
2022-11-15T02:53:33.037Z,957.25
2022-11-15T02:59:04.335Z,957.19
2022-11-15T03:04:36.445Z,957.19
2022-11-15T03:10:08.544Z,957.16
2022-11-15T03:15:40.373Z,957.12
2022-11-15T03:21:12.118Z,957.08
2022-11-15T03:26:44.032Z,957.08
2022-11-15T03:32:15.983Z,957.04
2022-11-15T03:37:47.644Z,957.00
2022-11-15T03:43:19.531Z,956.96
2022-11-15T03:48:51.264Z,956.92
2022-11-15T03:54:22.991Z,956.88
2022-11-15T03:59:54.725Z,956.82
2022-11-15T04:05:26.466Z,956.76
2022-11-15T04:10:58.972Z,956.70
2022-11-15T04:16:30.585Z,956.69
2022-11-15T04:22:02.306Z,956.65
2022-11-15T04:27:34.219Z,956.63
2022-11-15T04:33:05.872Z,956.61
2022-11-15T04:38:37.786Z,956.59
2022-11-15T04:44:09.366Z,956.59
2022-11-15T04:49:41.111Z,956.47
2022-11-15T04:55:12.837Z,956.47
2022-11-15T04:57:37.008Z,956.41
2022-11-15T05:03:08.947Z,956.39
2022-11-15T05:08:41.010Z,956.35
2022-11-15T05:14:13.064Z,956.33
2022-11-15T05:19:44.862Z,956.23
2022-11-15T05:25:16.797Z,956.17
2022-11-15T05:30:48.765Z,956.16
2022-11-15T05:36:20.671Z,956.12
2022-11-15T05:41:52.505Z,956.12
2022-11-15T05:47:24.142Z,956.06
2022-11-15T05:52:59.666Z,956.00
2022-11-15T05:58:28.296Z,955.92
2022-11-15T06:04:00.125Z,955.86
2022-11-15T06:09:31.817Z,955.86
2022-11-15T06:15:03.603Z,955.88
2022-11-15T06:20:35.558Z,955.82
2022-11-15T06:26:07.349Z,955.80
2022-11-15T06:31:38.931Z,955.78
2022-11-15T06:37:10.446Z,955.76
2022-11-15T06:42:42.214Z,955.76
2022-11-15T06:48:13.872Z,955.78
2022-11-15T06:53:45.581Z,955.82
2022-11-15T06:59:17.420Z,955.86
2022-11-15T07:04:49.831Z,955.94
2022-11-15T07:10:21.932Z,956.00
2022-11-15T07:15:53.654Z,956.02
2022-11-15T07:21:27.729Z,956.00
2022-11-15T07:26:57.209Z,956.04
2022-11-15T07:32:29.568Z,956.04
2022-11-15T07:38:01.672Z,956.04
2022-11-15T07:45:30.648Z,955.90
2022-11-15T07:51:02.587Z,955.88
2022-11-15T07:56:34.313Z,955.84
2022-11-15T08:02:06.105Z,955.80
2022-11-15T08:13:07.575Z,955.70
2022-11-15T08:18:39.233Z,955.64
2022-11-15T08:24:11.229Z,955.57
2022-11-15T08:29:43.413Z,955.51
2022-11-15T08:35:15.368Z,955.45
2022-11-15T08:40:47.643Z,955.43
2022-11-15T08:46:19.818Z,955.43
2022-11-15T08:51:52.085Z,955.41
2022-11-15T08:57:24.480Z,955.35
2022-11-15T09:03:02.354Z,955.31
2022-11-15T09:08:47.357Z,955.29
2022-11-15T09:14:06.244Z,955.21
2022-11-15T09:19:38.378Z,955.15
2022-11-15T09:25:16.277Z,955.08
2022-11-15T09:30:48.626Z,955.02
2022-11-15T09:36:20.850Z,954.92
2022-11-15T09:41:59.064Z,954.86
2022-11-15T09:47:31.237Z,954.80
2022-11-15T09:53:08.961Z,954.72
2022-11-15T09:58:40.966Z,954.65
2022-11-15T10:04:19.187Z,954.59
2022-11-15T10:09:57.014Z,954.51
2022-11-15T10:15:29.298Z,954.43
2022-11-15T10:21:07.638Z,954.35
2022-11-15T10:26:45.711Z,954.25
2022-11-15T10:32:18.099Z,954.19
2022-11-15T10:37:56.301Z,954.10
2022-11-15T10:43:34.436Z,954.02
2022-11-15T10:49:06.746Z,953.88
2022-11-15T10:54:38.663Z,953.82
2022-11-15T11:00:16.824Z,953.68
2022-11-15T11:05:49.025Z,953.57
2022-11-15T11:11:20.884Z,953.49
2022-11-15T11:16:59.085Z,953.43
2022-11-15T11:22:37.291Z,953.35
2022-11-15T11:28:10.584Z,953.25
2022-11-15T11:33:48.920Z,953.17
2022-11-15T11:39:21.485Z,953.08
2022-11-15T11:44:53.382Z,953.00
2022-11-15T11:50:31.474Z,952.92
2022-11-15T11:56:03.350Z,952.86
2022-11-15T12:01:35.643Z,952.78
2022-11-15T12:07:07.943Z,952.70
2022-11-15T12:12:46.093Z,952.65
2022-11-15T12:18:18.251Z,952.59
2022-11-15T12:23:56.354Z,952.57
2022-11-15T12:29:34.509Z,952.53
2022-11-15T12:35:12.316Z,952.47
2022-11-15T12:40:44.649Z,952.43
2022-11-15T12:46:16.635Z,952.43
2022-11-15T12:51:48.952Z,952.37
2022-11-15T12:57:21.199Z,952.33
2022-11-15T13:02:59.545Z,952.27
2022-11-15T13:08:32.018Z,952.21
2022-11-15T13:14:04.064Z,952.19
2022-11-15T13:19:42.234Z,952.13
2022-11-15T13:25:19.995Z,952.13
2022-11-15T13:30:52.164Z,952.13
2022-11-15T13:42:10.204Z,952.11
2022-11-15T13:47:48.329Z,952.10
2022-11-15T13:53:20.265Z,952.10
2022-11-15T13:58:52.472Z,952.02
2022-11-15T14:04:24.849Z,952.02
2022-11-15T14:09:56.885Z,952.00
2022-11-15T14:15:28.758Z,952.04
2022-11-15T14:21:06.576Z,952.06
2022-11-15T14:26:44.225Z,952.04
2022-11-15T14:32:22.117Z,952.06
2022-11-15T14:43:38.275Z,952.06
2022-11-15T14:49:16.336Z,952.10
2022-11-15T14:54:48.589Z,952.10
2022-11-15T15:00:20.874Z,952.06
2022-11-15T15:05:53.210Z,952.02
2022-11-15T15:11:25.693Z,952.00
2022-11-15T15:16:57.804Z,951.98
2022-11-15T15:22:30.567Z,951.96
2022-11-15T15:28:02.464Z,951.94
2022-11-15T15:33:34.508Z,951.90
2022-11-15T15:39:06.678Z,951.90
2022-11-15T15:44:39.094Z,951.92
2022-11-15T15:50:11.489Z,951.90
2022-11-15T15:55:43.349Z,951.88
2022-11-15T16:01:15.300Z,951.86
2022-11-15T16:06:47.265Z,951.80
2022-11-15T16:12:19.211Z,951.76
2022-11-15T16:17:51.555Z,951.68
2022-11-15T16:23:23.620Z,951.59
2022-11-15T16:28:55.599Z,951.55
2022-11-15T16:34:31.169Z,951.41
2022-11-15T16:40:01.326Z,951.29
2022-11-15T16:45:32.288Z,951.27
2022-11-15T16:51:04.555Z,951.25
2022-11-15T16:56:36.605Z,951.17
2022-11-15T17:02:08.388Z,951.13
2022-11-15T17:07:40.032Z,951.11
2022-11-15T17:13:12.092Z,951.08
2022-11-15T17:18:44.388Z,951.04
2022-11-15T17:24:16.550Z,951.00
2022-11-15T17:29:48.723Z,950.96
2022-11-15T17:35:21.284Z,950.94
2022-11-15T17:40:53.155Z,950.94
2022-11-15T17:46:25.167Z,950.92
2022-11-15T17:51:57.723Z,950.88
2022-11-15T17:57:29.690Z,950.86
2022-11-15T18:03:01.764Z,950.80
2022-11-15T18:08:33.850Z,950.76
2022-11-15T18:14:05.764Z,950.74
2022-11-15T18:19:38.010Z,950.68
2022-11-15T18:25:10.246Z,950.61
2022-11-15T18:30:42.515Z,950.57
2022-11-15T18:36:14.774Z,950.53
2022-11-15T18:41:47.061Z,950.49
2022-11-15T18:47:19.375Z,950.43
2022-11-15T18:49:43.099Z,950.33
2022-11-15T18:55:15.197Z,950.31
2022-11-15T19:00:47.053Z,950.27
2022-11-15T19:06:18.857Z,950.25
2022-11-15T19:11:50.784Z,950.21
2022-11-15T19:17:22.231Z,950.17
2022-11-15T19:22:53.638Z,950.14
2022-11-15T19:28:25.642Z,950.08
2022-11-15T19:33:57.439Z,950.06
2022-11-15T19:39:29.141Z,950.02
2022-11-15T19:45:00.928Z,949.96
2022-11-15T19:50:32.669Z,949.92
2022-11-15T19:56:04.684Z,949.92
2022-11-15T20:01:36.702Z,949.86
2022-11-15T20:07:08.531Z,949.82
2022-11-15T20:12:45.767Z,949.76
2022-11-15T20:18:17.721Z,949.72
2022-11-15T20:23:49.429Z,949.68
2022-11-15T20:29:27.177Z,949.66
2022-11-15T20:34:59.088Z,949.64
2022-11-15T20:40:30.921Z,949.59
2022-11-15T20:46:02.584Z,949.53
2022-11-15T20:51:34.386Z,949.45
2022-11-15T20:57:06.345Z,949.41
2022-11-15T21:02:37.819Z,949.35
2022-11-15T21:08:09.449Z,949.29
2022-11-15T21:13:40.853Z,949.15
2022-11-15T21:19:12.547Z,949.12
2022-11-15T21:24:44.307Z,949.04
2022-11-15T21:30:16.256Z,948.94
2022-11-15T21:35:53.706Z,948.76
2022-11-15T21:46:54.738Z,948.61
2022-11-15T21:52:26.316Z,948.57
2022-11-15T21:57:58.030Z,948.49
2022-11-15T22:03:29.866Z,948.39
2022-11-15T22:14:31.046Z,948.27
2022-11-15T22:20:22.764Z,948.19
2022-11-15T22:25:34.589Z,948.15
2022-11-15T22:37:13.294Z,948.10
2022-11-15T22:42:18.249Z,948.10
2022-11-15T22:47:46.945Z,948.04
2022-11-15T22:53:18.781Z,948.02
2022-11-15T22:58:50.496Z,948.00
2022-11-15T23:04:22.405Z,947.98
2022-11-15T23:09:54.116Z,947.96
2022-11-15T23:15:29.568Z,947.90
2022-11-15T23:20:57.719Z,947.86
2022-11-15T23:26:29.321Z,947.78
2022-11-15T23:32:02.291Z,947.70
2022-11-15T23:37:32.525Z,947.57
2022-11-15T23:43:04.363Z,947.47
2022-11-15T23:48:36.195Z,947.29
2022-11-15T23:54:07.408Z,947.19
2022-11-15T23:59:39.082Z,947.06
